Thunder radar more information blitzortung!


Rain radar  rain snow radar



Ingen spesiell oppmerksomhet nødvendig.    Det er ingen advarsler

Nearby METAR Reports

   
ENZV - Stavanger
Oppdatert: Feb 20 2019 5:50 am
For det meste Overskyet  
For det meste Overskyet  
   Vind: VEST 2.6 m/s
Vind: VEST 2.6 m/s
Temperatur: 5°C
Wind Chill: 3°C
Duggpunkt: 4°C
Luftfuktighet: 93%
Barometer: 1010 hPa
Skyer: Mostly Cloudy
Sikt: More than 10 km
Detaljer skyer: Noen skyer 600 ft,
For det meste Overskyet 2400 ft
ENZV 200450Z 26005KT 9999 FEW006 BKN024 05/04 Q1010
ENCN - Kristiansand
Oppdatert: Feb 20 2019 5:50 am
Klart  
Klart  
   Vind: SV 2.1 m/s
Vind: SV 2.1 m/s
Temperatur: 4°C
Wind Chill: 2°C
Duggpunkt: 1°C
Luftfuktighet: 81%
Barometer: 1009 hPa
Sikt: More than 10 km
Detaljer skyer: Klart ft
ENCN 200450Z 22004KT 180V250 CAVOK 04/01 Q1009
ENBR - Bergen
Oppdatert: Feb 20 2019 5:50 am
For det meste Overskyet  
For det meste Overskyet  
   Vind: varierende 1 m/s
Vind: varierende 1 m/s
Temperatur: 0°C
Duggpunkt: 0°C
Luftfuktighet: 100%
Barometer: 1009 hPa
Skyer: Mostly Cloudy
Sikt: More than 10 km
Detaljer skyer: For det meste Overskyet 3800 ft
ENBR 200450Z VRB02KT 9999 BKN038 00/M00 Q1009 RMK WIND 1200FT VRB02KT
ENGM - Oslo
Oppdatert: Feb 20 2019 5:50 am
Klart  
Klart  
   Vind: NNV 2.1 m/s
Vind: NNV 2.1 m/s
Temperatur: -3°C
Wind Chill: -6°C
Duggpunkt: -6°C
Luftfuktighet: 80%
Barometer: 1007 hPa
Sikt: More than 10 km
Detaljer skyer: Klart ft
ENGM 200450Z 34004KT 290V010 CAVOK M03/M06 Q1007 NOSIG
ENVA - Trondheim
Oppdatert: Feb 20 2019 5:50 am
For det meste Overskyet  
For det meste Overskyet  
   Vind: varierende 1 m/s
Vind: varierende 1 m/s
Temperatur: 1°C
Duggpunkt: -3°C
Luftfuktighet: 75%
Barometer: 1008 hPa
Skyer: Mostly Cloudy
Sikt: More than 10 km
Detaljer skyer: Noen skyer 1800 ft,
Delvis overskyet 5100 ft,
For det meste Overskyet 7400 ft
ENVA 200450Z VRB02KT 9999 FEW018 SCT051 BKN074 01/M03 Q1008 RMK WIND 670FT 30004KT
ENTC - Tromsø
Oppdatert: Feb 20 2019 5:50 am
Lokale byger, For det meste Overskyet  
Lokale byger, For det meste Overskyet  
   Vind: NNØ 8.7 m/s
Vind: NNØ 8.7 m/s
Temperatur: -6°C
Wind Chill: -14°C
Duggpunkt: -10°C
Luftfuktighet: 74%
Barometer: 1005 hPa
Skyer: Mostly Cloudy
Sikt: More than 10 km
Detaljer skyer: Noen skyer 2500 ft,
For det meste Overskyet 5900 ft
ENTC 200450Z 02017KT 9999 VCSH FEW025 BKN059 M06/M10 Q1005 RMK WIND 2600FT 01027KT

Script utviklet av  Saratoga-weather.org Tilpasset for tamplaten av  Weerstation Leuven

Du finner vår vær info også på:

European Weather Network

WeatherCloud

Weather Underground

AWEKAS

HAMweather, WeatherForYou, PWS Weather

Utrustning vi bruker:

vær-station
Davis VP2

vær-programmet
Weather Display

Davis VP2

Weather Display